createdAt,value
2022-09-22T00:00:05.470Z,10.00
2022-09-22T00:02:37.402Z,9.40
2022-09-22T00:05:09.449Z,10.23
2022-09-22T00:07:41.381Z,10.60
2022-09-22T00:10:13.480Z,10.13
2022-09-22T00:12:47.298Z,10.73
2022-09-22T00:15:19.330Z,10.00
2022-09-22T00:17:51.312Z,9.90
2022-09-22T00:20:23.276Z,9.07
2022-09-22T00:22:55.512Z,8.98
2022-09-22T00:25:27.461Z,9.30
2022-09-22T00:27:59.373Z,9.25
2022-09-22T00:30:31.360Z,9.68
2022-09-22T00:33:03.294Z,9.85
2022-09-22T00:35:38.158Z,10.20
2022-09-22T00:38:10.436Z,9.75
2022-09-22T00:40:42.436Z,7.93
2022-09-22T00:43:17.985Z,7.80
2022-09-22T00:45:56.469Z,7.65
2022-09-22T00:48:33.440Z,7.97
2022-09-22T00:51:09.391Z,8.15
2022-09-22T00:53:42.309Z,8.02
2022-09-22T00:56:26.606Z,8.45
2022-09-22T00:59:08.344Z,8.25
2022-09-22T01:01:40.688Z,7.20
2022-09-22T01:04:13.050Z,7.75
2022-09-22T01:06:46.535Z,7.15
2022-09-22T01:09:18.484Z,7.47
2022-09-22T01:11:50.912Z,8.55
2022-09-22T01:14:58.137Z,7.82
2022-09-22T01:17:56.095Z,8.23
2022-09-22T01:20:55.518Z,8.02
2022-09-22T01:23:49.990Z,8.52
2022-09-22T01:26:44.869Z,8.48
2022-09-22T01:30:15.135Z,9.32
2022-09-22T01:33:13.802Z,9.40
2022-09-22T01:36:01.830Z,8.80
2022-09-22T01:38:55.314Z,8.40
2022-09-22T01:41:51.957Z,9.43
2022-09-22T01:44:37.174Z,8.85
2022-09-22T01:47:48.446Z,8.65
2022-09-22T01:50:40.527Z,9.68
2022-09-22T01:53:16.099Z,8.85
2022-09-22T01:55:55.035Z,9.30
2022-09-22T01:58:32.705Z,9.38
2022-09-22T02:01:15.857Z,8.35
2022-09-22T02:04:00.507Z,9.18
2022-09-22T02:06:40.242Z,9.85
2022-09-22T02:09:17.403Z,8.80
2022-09-22T02:11:49.616Z,8.75
2022-09-22T02:14:21.605Z,7.97
2022-09-22T02:16:54.727Z,8.30
2022-09-22T02:19:41.168Z,8.73
2022-09-22T02:22:13.360Z,7.72
2022-09-22T02:24:47.225Z,7.78
2022-09-22T02:27:36.758Z,8.00
2022-09-22T02:30:11.945Z,7.75
2022-09-22T02:32:49.173Z,7.40
2022-09-22T02:35:22.724Z,6.75
2022-09-22T02:38:10.481Z,6.78
2022-09-22T02:41:06.601Z,6.43
2022-09-22T02:43:52.278Z,6.22
2022-09-22T02:46:27.410Z,6.60
2022-09-22T02:49:12.171Z,6.10
2022-09-22T02:51:46.650Z,6.70
2022-09-22T02:54:18.633Z,6.07
2022-09-22T02:56:54.262Z,5.78
2022-09-22T02:59:26.182Z,6.35
2022-09-22T03:01:58.157Z,7.03
2022-09-22T03:04:30.297Z,5.85
2022-09-22T03:07:02.427Z,5.78
2022-09-22T03:09:34.429Z,6.28
2022-09-22T03:12:06.664Z,6.90
2022-09-22T03:14:38.580Z,6.15
2022-09-22T03:17:10.611Z,5.93
2022-09-22T03:19:53.437Z,6.88
2022-09-22T03:22:25.451Z,8.68
2022-09-22T03:24:57.334Z,7.07
2022-09-22T03:27:29.317Z,6.85
2022-09-22T03:30:01.269Z,6.78
2022-09-22T03:32:33.820Z,7.43
2022-09-22T03:35:07.228Z,6.82
2022-09-22T03:37:39.113Z,7.03
2022-09-22T03:40:11.316Z,6.63
2022-09-22T03:42:44.363Z,7.72
2022-09-22T03:45:16.692Z,6.70
2022-09-22T03:47:48.692Z,6.55
2022-09-22T03:50:21.918Z,7.00
2022-09-22T03:52:53.878Z,6.07
2022-09-22T03:55:25.902Z,7.13
2022-09-22T03:57:57.797Z,7.07
2022-09-22T04:00:29.831Z,8.20
2022-09-22T04:03:01.728Z,7.88
2022-09-22T04:05:33.721Z,7.50
2022-09-22T04:08:05.670Z,6.80
2022-09-22T04:10:37.627Z,7.35
2022-09-22T04:13:09.562Z,6.22
2022-09-22T04:15:42.471Z,6.55
2022-09-22T04:18:14.656Z,6.90
2022-09-22T04:20:46.591Z,6.57
2022-09-22T04:23:18.518Z,6.38
2022-09-22T04:25:50.423Z,6.97
2022-09-22T04:28:22.606Z,6.47
2022-09-22T04:30:55.419Z,6.32
2022-09-22T04:33:27.409Z,7.22
2022-09-22T04:35:59.762Z,6.32
2022-09-22T04:38:31.835Z,7.05
2022-09-22T04:41:03.798Z,6.60
2022-09-22T04:43:35.725Z,6.95
2022-09-22T04:46:07.700Z,6.70
2022-09-22T04:48:39.624Z,6.50
2022-09-22T04:51:11.591Z,6.85
2022-09-22T04:53:43.546Z,7.15
2022-09-22T04:56:16.045Z,6.97
2022-09-22T04:58:48.010Z,6.90
2022-09-22T05:01:20.103Z,5.90
2022-09-22T05:03:54.023Z,5.88
2022-09-22T05:06:26.462Z,7.22
2022-09-22T05:08:58.729Z,6.43
2022-09-22T05:11:31.386Z,6.07
2022-09-22T05:14:03.352Z,7.78
2022-09-22T05:16:35.492Z,7.15
2022-09-22T05:19:09.775Z,6.65
2022-09-22T05:21:41.817Z,7.50
2022-09-22T05:24:13.842Z,7.53
2022-09-22T05:26:45.732Z,7.15
2022-09-22T05:29:18.386Z,8.43
2022-09-22T05:31:50.395Z,8.15
2022-09-22T05:34:22.585Z,8.13
2022-09-22T05:36:54.548Z,8.38
2022-09-22T05:39:26.462Z,7.55
2022-09-22T05:41:58.425Z,8.57
2022-09-22T05:44:30.397Z,7.40
2022-09-22T05:47:02.856Z,7.47
2022-09-22T05:49:34.752Z,6.93
2022-09-22T05:52:06.671Z,6.60
2022-09-22T05:54:38.565Z,6.70
2022-09-22T05:57:10.571Z,6.68
2022-09-22T05:59:42.600Z,7.05
2022-09-22T06:02:25.551Z,6.45
2022-09-22T06:04:58.513Z,6.47
2022-09-22T06:07:30.438Z,5.72
2022-09-22T06:10:02.341Z,6.15
2022-09-22T06:12:34.274Z,5.93
2022-09-22T06:15:06.993Z,6.13
2022-09-22T06:17:38.981Z,6.55
2022-09-22T06:20:10.888Z,5.82
2022-09-22T06:22:45.085Z,5.55
2022-09-22T06:25:17.344Z,6.03
2022-09-22T06:28:05.338Z,5.97
2022-09-22T06:30:41.321Z,6.72
2022-09-22T06:33:13.341Z,7.40
2022-09-22T06:35:46.271Z,7.30
2022-09-22T06:38:18.387Z,7.32
2022-09-22T06:40:51.393Z,6.93
2022-09-22T06:43:23.393Z,6.78
2022-09-22T06:46:00.252Z,7.43
2022-09-22T06:48:32.343Z,6.72
2022-09-22T06:51:04.400Z,6.35
2022-09-22T06:53:36.347Z,6.35
2022-09-22T06:56:09.044Z,7.00
2022-09-22T06:59:08.406Z,7.43
2022-09-22T07:01:34.600Z,5.85
2022-09-22T07:04:07.299Z,6.50
2022-09-22T07:06:40.685Z,6.70
2022-09-22T07:09:12.813Z,7.30
2022-09-22T07:11:45.187Z,7.57
2022-09-22T07:14:19.068Z,5.97
2022-09-22T07:16:52.670Z,5.97
2022-09-22T07:19:24.570Z,5.57
2022-09-22T07:21:56.607Z,5.05
2022-09-22T07:24:28.504Z,5.03
2022-09-22T07:27:04.327Z,4.57
2022-09-22T07:29:39.664Z,4.82
2022-09-22T07:32:11.657Z,5.22
2022-09-22T07:34:43.878Z,5.18
2022-09-22T07:37:16.102Z,5.47
2022-09-22T07:39:48.250Z,4.55
2022-09-22T07:42:20.442Z,4.18
2022-09-22T07:45:10.858Z,4.80
2022-09-22T07:50:36.422Z,4.85
2022-09-22T07:53:08.343Z,3.97
2022-09-22T07:55:40.681Z,3.85
2022-09-22T07:58:17.156Z,4.30
2022-09-22T08:00:49.442Z,5.45
2022-09-22T08:03:21.450Z,3.70
2022-09-22T08:06:06.285Z,3.92
2022-09-22T08:08:43.565Z,4.18
2022-09-22T08:11:18.707Z,3.30
2022-09-22T08:14:00.759Z,3.53
2022-09-22T08:16:40.004Z,2.70
2022-09-22T08:19:13.336Z,2.70
2022-09-22T08:21:49.294Z,3.95
2022-09-22T08:24:22.887Z,4.38
2022-09-22T08:26:58.134Z,2.50
2022-09-22T08:29:31.532Z,2.08
2022-09-22T08:32:03.482Z,2.00
2022-09-22T08:34:35.417Z,2.05
2022-09-22T08:37:07.347Z,1.85
2022-09-22T08:39:39.510Z,1.63
2022-09-22T08:42:22.926Z,2.53
2022-09-22T08:45:29.627Z,1.95
2022-09-22T08:48:39.153Z,1.70
2022-09-22T08:51:43.163Z,1.48
2022-09-22T08:54:17.162Z,1.60
2022-09-22T08:57:21.407Z,1.88
2022-09-22T09:00:05.856Z,1.42
2022-09-22T09:02:42.593Z,1.67
2022-09-22T09:05:39.210Z,1.30
2022-09-22T09:08:19.911Z,1.80
2022-09-22T09:11:29.897Z,1.85
2022-09-22T09:14:26.306Z,1.52
2022-09-22T09:17:15.190Z,1.67
2022-09-22T09:20:02.189Z,1.50
2022-09-22T09:22:45.016Z,2.72
2022-09-22T09:25:27.996Z,1.70
2022-09-22T09:28:07.118Z,1.45
2022-09-22T09:30:52.873Z,1.50
2022-09-22T09:33:46.171Z,1.92
2022-09-22T09:36:22.882Z,1.33
2022-09-22T09:38:58.206Z,1.30
2022-09-22T09:41:32.706Z,0.90
2022-09-22T09:44:05.449Z,1.30
2022-09-22T09:46:50.376Z,1.10
2022-09-22T09:49:24.199Z,0.85
2022-09-22T09:52:02.159Z,1.27
2022-09-22T09:54:34.130Z,2.40
2022-09-22T09:57:13.977Z,1.50
2022-09-22T10:00:07.162Z,1.20
2022-09-22T10:02:51.012Z,1.70
2022-09-22T10:05:26.857Z,1.33
2022-09-22T10:08:04.461Z,1.23
2022-09-22T10:10:41.201Z,1.15
2022-09-22T10:13:16.025Z,1.60
2022-09-22T10:16:04.339Z,1.10
2022-09-22T10:18:40.526Z,2.90
2022-09-22T10:21:18.544Z,0.80
2022-09-22T10:23:56.494Z,0.90
2022-09-22T10:26:31.464Z,1.10
2022-09-22T10:29:21.200Z,1.10
2022-09-22T10:34:54.854Z,0.80
2022-09-22T10:37:29.639Z,1.00
2022-09-22T10:40:03.861Z,0.90
2022-09-22T10:42:40.344Z,0.88
2022-09-22T10:45:15.724Z,1.08
2022-09-22T10:48:16.484Z,1.10
2022-09-22T10:51:09.316Z,1.00
2022-09-22T10:53:59.193Z,1.20
2022-09-22T10:56:39.779Z,1.08
2022-09-22T10:59:32.714Z,1.63
2022-09-22T11:02:41.443Z,0.93
2022-09-22T11:05:43.843Z,1.30
2022-09-22T11:08:38.833Z,1.02
2022-09-22T11:11:41.799Z,1.58
2022-09-22T11:14:32.591Z,1.98
2022-09-22T11:17:32.372Z,1.17
2022-09-22T11:20:25.545Z,1.15
2022-09-22T11:23:04.563Z,0.82
2022-09-22T11:25:51.729Z,0.90
2022-09-22T11:29:00.749Z,0.65
2022-09-22T11:31:51.172Z,1.20
2022-09-22T11:34:48.530Z,0.70
2022-09-22T11:37:50.418Z,0.82
2022-09-22T11:41:15.971Z,0.73
2022-09-22T11:44:40.989Z,0.80
2022-09-22T11:47:16.381Z,0.68
2022-09-22T11:50:11.961Z,0.70
2022-09-22T11:53:24.273Z,0.63
2022-09-22T11:56:17.156Z,0.60
2022-09-22T11:58:53.297Z,0.90
2022-09-22T12:01:31.081Z,0.50
2022-09-22T12:04:30.661Z,0.80
2022-09-22T12:07:07.380Z,0.80
2022-09-22T12:10:00.791Z,0.88
2022-09-22T12:12:33.515Z,0.88
2022-09-22T12:15:29.649Z,0.70
2022-09-22T12:18:26.920Z,1.00
2022-09-22T12:21:18.609Z,0.98
2022-09-22T12:23:52.283Z,0.57
2022-09-22T12:26:45.277Z,1.17
2022-09-22T12:29:17.109Z,1.27
2022-09-22T12:31:52.271Z,0.90
2022-09-22T12:34:39.290Z,0.77
2022-09-22T12:37:40.776Z,1.10
2022-09-22T12:40:27.990Z,0.90
2022-09-22T12:43:00.085Z,1.45
2022-09-22T12:45:41.324Z,1.00
2022-09-22T12:48:37.230Z,1.20
2022-09-22T12:51:24.523Z,0.95
2022-09-22T12:54:24.243Z,0.93
2022-09-22T12:57:00.252Z,2.95
2022-09-22T12:59:38.146Z,1.10
2022-09-22T13:02:18.860Z,1.00
2022-09-22T13:05:00.195Z,2.33
2022-09-22T13:07:37.713Z,1.00
2022-09-22T13:10:24.805Z,1.13
2022-09-22T13:13:03.023Z,1.02
2022-09-22T13:15:47.207Z,1.50
2022-09-22T13:19:06.989Z,1.02
2022-09-22T13:21:40.275Z,1.92
2022-09-22T13:24:19.569Z,1.23
2022-09-22T13:27:04.287Z,1.00
2022-09-22T13:29:36.529Z,0.90
2022-09-22T13:32:26.728Z,1.20
2022-09-22T13:37:31.401Z,1.20
2022-09-22T13:40:03.460Z,1.17
2022-09-22T13:42:37.091Z,1.67
2022-09-22T13:45:24.089Z,1.40
2022-09-22T13:48:16.848Z,1.67
2022-09-22T13:50:55.782Z,1.90
2022-09-22T13:53:27.830Z,1.58
2022-09-22T13:56:00.274Z,1.50
2022-09-22T13:58:43.274Z,1.88
2022-09-22T14:01:19.867Z,1.42
2022-09-22T14:03:53.500Z,1.58
2022-09-22T14:06:31.193Z,1.75
2022-09-22T14:09:04.043Z,1.15
2022-09-22T14:11:37.204Z,1.17
2022-09-22T14:14:23.682Z,1.27
2022-09-22T14:17:26.769Z,1.50
2022-09-22T14:20:03.714Z,1.10
2022-09-22T14:22:42.365Z,1.52
2022-09-22T14:25:18.959Z,1.20
2022-09-22T14:27:55.516Z,1.42
2022-09-22T14:30:30.347Z,1.08
2022-09-22T14:33:04.177Z,1.40
2022-09-22T14:35:37.451Z,1.20
2022-09-22T14:38:20.853Z,0.90
2022-09-22T14:40:59.237Z,1.00
2022-09-22T14:43:42.507Z,0.93
2022-09-22T14:46:33.729Z,1.15
2022-09-22T14:49:43.048Z,1.60
2022-09-22T14:52:33.426Z,1.45
2022-09-22T14:57:49.370Z,2.20
2022-09-22T15:00:40.022Z,1.40
2022-09-22T15:03:28.429Z,1.85
2022-09-22T15:06:13.064Z,0.98
2022-09-22T15:08:51.459Z,1.13
2022-09-22T15:11:54.908Z,1.20
2022-09-22T15:14:41.795Z,1.10
2022-09-22T15:17:57.079Z,1.30
2022-09-22T15:20:46.648Z,1.00
2022-09-22T15:23:27.558Z,1.48
2022-09-22T15:26:04.172Z,1.50
2022-09-22T15:28:38.052Z,1.65
2022-09-22T15:31:20.132Z,2.55
2022-09-22T15:33:56.332Z,2.50
2022-09-22T15:36:33.068Z,2.63
2022-09-22T15:39:24.328Z,1.35
2022-09-22T15:41:56.462Z,1.02
2022-09-22T15:44:28.577Z,1.30
2022-09-22T15:47:01.458Z,1.10
2022-09-22T15:49:35.191Z,1.38
2022-09-22T15:52:07.263Z,1.67
2022-09-22T15:54:39.259Z,2.75
2022-09-22T15:57:11.361Z,1.42
2022-09-22T15:59:43.440Z,1.48
2022-09-22T16:02:16.207Z,1.42
2022-09-22T16:04:48.207Z,1.15
2022-09-22T16:07:21.012Z,1.40
2022-09-22T16:09:53.268Z,1.52
2022-09-22T16:12:26.042Z,1.50
2022-09-22T16:14:58.306Z,0.85
2022-09-22T16:17:30.479Z,1.55
2022-09-22T16:20:04.654Z,1.88
2022-09-22T16:22:36.823Z,1.40
2022-09-22T16:25:11.504Z,1.48
2022-09-22T16:27:43.796Z,1.42
2022-09-22T16:30:17.137Z,1.85
2022-09-22T16:32:49.573Z,1.33
2022-09-22T16:35:25.062Z,1.90
2022-09-22T16:37:57.559Z,2.17
2022-09-22T16:40:33.490Z,1.63
2022-09-22T16:43:07.808Z,1.60
2022-09-22T16:45:59.032Z,1.73
2022-09-22T16:48:33.003Z,1.38
2022-09-22T16:51:05.729Z,2.38
2022-09-22T16:53:39.044Z,2.67
2022-09-22T16:56:11.243Z,2.60
2022-09-22T16:58:43.439Z,2.05
2022-09-22T17:01:19.642Z,1.77
2022-09-22T17:03:52.980Z,1.88
2022-09-22T17:06:27.492Z,2.33
2022-09-22T17:08:59.991Z,2.78
2022-09-22T17:11:36.640Z,2.20
2022-09-22T17:14:13.920Z,1.95
2022-09-22T17:16:49.990Z,2.53
2022-09-22T17:19:26.404Z,2.75
2022-09-22T17:21:59.296Z,2.70
2022-09-22T17:24:31.302Z,3.03
2022-09-22T17:27:03.266Z,3.30
2022-09-22T17:29:35.265Z,3.13
2022-09-22T17:32:08.167Z,3.10
2022-09-22T17:34:41.255Z,3.53
2022-09-22T17:37:15.722Z,3.03
2022-09-22T17:39:51.298Z,2.60
2022-09-22T17:42:24.391Z,3.10
2022-09-22T17:44:56.349Z,3.22
2022-09-22T17:47:46.726Z,2.83
2022-09-22T17:56:05.178Z,3.90
2022-09-22T17:58:37.140Z,3.33
2022-09-22T18:01:09.107Z,2.90
2022-09-22T18:03:45.189Z,3.42
2022-09-22T18:06:19.246Z,3.15
2022-09-22T18:08:51.967Z,3.60
2022-09-22T18:11:27.769Z,3.90
2022-09-22T18:14:00.115Z,3.72
2022-09-22T18:16:33.427Z,4.07
2022-09-22T18:19:06.795Z,3.40
2022-09-22T18:21:39.526Z,2.95
2022-09-22T18:24:18.829Z,3.28
2022-09-22T18:26:50.871Z,3.70
2022-09-22T18:29:22.806Z,3.45
2022-09-22T18:31:59.027Z,3.85
2022-09-22T18:34:32.045Z,4.38
2022-09-22T18:37:05.002Z,4.18
2022-09-22T18:39:40.798Z,12.75
2022-09-22T18:42:13.938Z,13.38
2022-09-22T18:44:47.320Z,11.65
2022-09-22T18:47:21.326Z,11.52
2022-09-22T18:49:53.281Z,14.20
2022-09-22T18:52:25.733Z,13.85
2022-09-22T18:54:59.014Z,9.68
2022-09-22T18:57:31.089Z,9.20
2022-09-22T19:00:04.417Z,7.93
2022-09-22T19:02:36.443Z,8.23
2022-09-22T19:05:09.068Z,8.48
2022-09-22T19:07:43.932Z,8.07
2022-09-22T19:10:22.451Z,8.48
2022-09-22T19:12:54.675Z,7.60
2022-09-22T19:15:27.162Z,9.60
2022-09-22T19:17:59.108Z,9.50
2022-09-22T19:20:31.370Z,11.73
2022-09-22T19:23:03.513Z,11.40
2022-09-22T19:25:35.544Z,12.68
2022-09-22T19:28:07.859Z,12.27
2022-09-22T19:30:40.316Z,11.27
2022-09-22T19:33:12.405Z,9.13
2022-09-22T19:35:44.358Z,9.05
2022-09-22T19:38:17.996Z,8.20
2022-09-22T19:40:49.999Z,8.10
2022-09-22T19:43:24.513Z,8.00
2022-09-22T19:45:56.514Z,11.57
2022-09-22T19:48:29.057Z,85.53
2022-09-22T19:51:03.404Z,41.30
2022-09-22T19:53:35.438Z,41.45
2022-09-22T19:56:07.359Z,23.23
2022-09-22T19:58:39.331Z,16.50
2022-09-22T20:01:35.254Z,8.43
2022-09-22T20:04:13.428Z,6.97
2022-09-22T20:06:48.909Z,6.75
2022-09-22T20:09:21.864Z,6.18
2022-09-22T20:11:53.966Z,5.15
2022-09-22T20:14:27.229Z,5.93
2022-09-22T20:17:03.858Z,6.30
2022-09-22T20:19:40.441Z,5.93
2022-09-22T20:22:26.305Z,5.30
2022-09-22T20:25:01.536Z,6.53
2022-09-22T20:27:35.979Z,5.60
2022-09-22T20:30:09.048Z,5.18
2022-09-22T20:32:41.499Z,5.20
2022-09-22T20:35:17.446Z,5.50
2022-09-22T20:37:49.677Z,5.32
2022-09-22T20:40:23.223Z,5.10
2022-09-22T20:42:55.460Z,6.45
2022-09-22T20:45:28.353Z,6.10
2022-09-22T20:48:00.742Z,6.38
2022-09-22T20:50:32.869Z,6.05
2022-09-22T20:53:06.155Z,5.25
2022-09-22T20:55:38.861Z,4.97
2022-09-22T20:58:12.793Z,4.85
2022-09-22T21:00:48.829Z,5.97
2022-09-22T21:03:20.946Z,5.30
2022-09-22T21:05:53.274Z,4.78
2022-09-22T21:08:44.042Z,4.72
2022-09-22T21:11:19.377Z,4.72
2022-09-22T21:13:58.871Z,4.30
2022-09-22T21:16:32.782Z,5.07
2022-09-22T21:19:05.368Z,4.93
2022-09-22T21:21:37.911Z,5.13
2022-09-22T21:24:11.118Z,5.40
2022-09-22T21:26:43.230Z,4.95
2022-09-22T21:29:15.230Z,5.97
2022-09-22T21:31:49.900Z,6.20
2022-09-22T21:34:21.957Z,4.72
2022-09-22T21:36:53.990Z,6.40
2022-09-22T21:39:25.978Z,5.40
2022-09-22T21:41:58.062Z,4.22
2022-09-22T21:44:30.154Z,5.43
2022-09-22T21:47:02.280Z,4.80
2022-09-22T21:49:34.298Z,4.60
2022-09-22T21:52:06.525Z,4.82
2022-09-22T21:54:38.473Z,5.07
2022-09-22T21:57:10.461Z,4.82
2022-09-22T21:59:42.375Z,4.63
2022-09-22T22:02:14.559Z,4.38
2022-09-22T22:04:46.613Z,4.35
2022-09-22T22:07:19.702Z,4.57
2022-09-22T22:09:52.035Z,4.38
2022-09-22T22:12:24.634Z,4.18
2022-09-22T22:14:57.194Z,4.13
2022-09-22T22:17:32.388Z,4.15
2022-09-22T22:20:04.766Z,4.65
2022-09-22T22:22:37.256Z,4.15
2022-09-22T22:25:18.503Z,4.30
2022-09-22T22:27:50.632Z,4.10
2022-09-22T22:30:22.767Z,4.80
2022-09-22T22:32:54.714Z,5.30
2022-09-22T22:35:27.235Z,4.00
2022-09-22T22:37:59.326Z,4.18
2022-09-22T22:40:32.194Z,3.92
2022-09-22T22:43:04.236Z,4.47
2022-09-22T22:45:36.151Z,4.68
2022-09-22T22:48:08.114Z,4.32
2022-09-22T22:50:40.388Z,4.57
2022-09-22T22:53:13.688Z,4.30
2022-09-22T22:56:00.508Z,4.50
2022-09-22T22:58:36.264Z,7.82
2022-09-22T23:01:17.881Z,5.75
2022-09-22T23:04:00.311Z,5.53
2022-09-22T23:06:44.039Z,6.65
2022-09-22T23:09:17.421Z,7.05
2022-09-22T23:11:49.545Z,6.07
2022-09-22T23:14:21.947Z,5.55
2022-09-22T23:16:54.002Z,5.35
2022-09-22T23:19:25.995Z,4.97
2022-09-22T23:21:59.137Z,5.10
2022-09-22T23:24:31.036Z,4.78
2022-09-22T23:27:02.959Z,4.18
2022-09-22T23:29:34.896Z,4.45
2022-09-22T23:32:06.897Z,4.68
2022-09-22T23:34:38.808Z,4.60
2022-09-22T23:37:10.727Z,4.47
2022-09-22T23:39:42.643Z,4.40
2022-09-22T23:42:14.542Z,4.07
2022-09-22T23:44:46.506Z,4.65
2022-09-22T23:47:18.497Z,4.13
2022-09-22T23:49:50.497Z,3.85
2022-09-22T23:52:22.549Z,4.85
2022-09-22T23:54:54.560Z,4.82
2022-09-22T23:57:26.478Z,4.32
2022-09-22T23:59:58.568Z,4.70
